sensor_id;sensor_type;location;lat;lon;timestamp;pressure;altitude;pressure_sealevel;temperature;humidity
9139;BME280;4604;48.616;9.548;2022-11-25T00:00:15;96817.84;;;4.11;100.00
9139;BME280;4604;48.616;9.548;2022-11-25T00:02:43;96811.47;;;4.02;100.00
9139;BME280;4604;48.616;9.548;2022-11-25T00:05:10;96827.03;;;4.04;100.00
9139;BME280;4604;48.616;9.548;2022-11-25T00:07:37;96757.69;;;3.60;100.00
9139;BME280;4604;48.616;9.548;2022-11-25T00:13:26;96805.38;;;3.89;100.00
9139;BME280;4604;48.616;9.548;2022-11-25T00:16:13;96833.13;;;3.90;100.00
9139;BME280;4604;48.616;9.548;2022-11-25T00:18:43;96820.28;;;3.87;100.00
9139;BME280;4604;48.616;9.548;2022-11-25T00:21:15;96827.84;;;3.92;100.00
9139;BME280;4604;48.616;9.548;2022-11-25T00:23:43;96837.97;;;3.96;100.00
9139;BME280;4604;48.616;9.548;2022-11-25T00:26:13;96836.19;;;3.97;100.00
9139;BME280;4604;48.616;9.548;2022-11-25T00:28:43;96841.63;;;3.94;100.00
9139;BME280;4604;48.616;9.548;2022-11-25T00:31:11;96840.16;;;3.90;100.00
9139;BME280;4604;48.616;9.548;2022-11-25T00:33:41;96839.91;;;3.80;100.00
9139;BME280;4604;48.616;9.548;2022-11-25T00:36:14;96835.63;;;3.79;100.00
9139;BME280;4604;48.616;9.548;2022-11-25T00:38:42;96840.94;;;3.77;100.00
9139;BME280;4604;48.616;9.548;2022-11-25T00:41:09;96836.88;;;3.73;100.00
9139;BME280;4604;48.616;9.548;2022-11-25T00:43:54;96817.47;;;3.50;100.00
9139;BME280;4604;48.616;9.548;2022-11-25T00:46:39;96824.75;;;3.45;100.00
9139;BME280;4604;48.616;9.548;2022-11-25T00:52:14;96832.78;;;3.42;100.00
9139;BME280;4604;48.616;9.548;2022-11-25T00:54:46;96834.66;;;3.40;100.00
9139;BME280;4604;48.616;9.548;2022-11-25T00:57:14;96842.47;;;3.40;100.00
9139;BME280;4604;48.616;9.548;2022-11-25T00:59:42;96837.03;;;3.43;100.00
9139;BME280;4604;48.616;9.548;2022-11-25T01:02:10;96838.00;;;3.42;100.00
9139;BME280;4604;48.616;9.548;2022-11-25T01:04:37;96836.41;;;3.39;100.00
9139;BME280;4604;48.616;9.548;2022-11-25T01:09:54;96835.88;;;3.34;100.00
9139;BME280;4604;48.616;9.548;2022-11-25T01:12:21;96840.34;;;3.32;100.00
9139;BME280;4604;48.616;9.548;2022-11-25T01:14:49;96833.00;;;3.25;100.00
9139;BME280;4604;48.616;9.548;2022-11-25T01:17:18;96841.75;;;3.24;100.00
9139;BME280;4604;48.616;9.548;2022-11-25T01:19:46;96839.25;;;3.22;100.00
9139;BME280;4604;48.616;9.548;2022-11-25T01:22:13;96853.50;;;3.16;100.00
9139;BME280;4604;48.616;9.548;2022-11-25T01:24:39;96856.59;;;3.09;100.00
9139;BME280;4604;48.616;9.548;2022-11-25T01:27:06;96842.72;;;2.94;100.00
9139;BME280;4604;48.616;9.548;2022-11-25T01:29:33;96856.09;;;3.16;100.00
9139;BME280;4604;48.616;9.548;2022-11-25T01:32:01;96858.34;;;3.22;100.00
9139;BME280;4604;48.616;9.548;2022-11-25T01:34:28;96854.31;;;3.17;100.00
9139;BME280;4604;48.616;9.548;2022-11-25T01:36:56;96852.09;;;3.25;100.00
9139;BME280;4604;48.616;9.548;2022-11-25T01:39:24;96837.41;;;3.10;100.00
9139;BME280;4604;48.616;9.548;2022-11-25T01:41:51;96855.44;;;3.27;100.00
9139;BME280;4604;48.616;9.548;2022-11-25T01:44:19;96858.22;;;3.24;100.00
9139;BME280;4604;48.616;9.548;2022-11-25T01:46:53;96854.78;;;3.24;100.00
9139;BME280;4604;48.616;9.548;2022-11-25T01:49:28;96843.53;;;3.23;100.00
9139;BME280;4604;48.616;9.548;2022-11-25T01:52:02;96845.94;;;3.26;100.00
9139;BME280;4604;48.616;9.548;2022-11-25T01:54:34;96839.25;;;3.22;100.00
9139;BME280;4604;48.616;9.548;2022-11-25T01:57:05;96840.09;;;3.22;100.00
9139;BME280;4604;48.616;9.548;2022-11-25T01:59:37;96834.03;;;3.22;100.00
9139;BME280;4604;48.616;9.548;2022-11-25T02:02:05;96826.22;;;3.22;100.00
9139;BME280;4604;48.616;9.548;2022-11-25T02:04:38;96829.25;;;3.29;100.00
9139;BME280;4604;48.616;9.548;2022-11-25T02:07:15;96834.47;;;3.29;100.00
9139;BME280;4604;48.616;9.548;2022-11-25T02:09:44;96827.38;;;3.31;100.00
9139;BME280;4604;48.616;9.548;2022-11-25T02:12:13;96819.28;;;3.35;100.00
9139;BME280;4604;48.616;9.548;2022-11-25T02:14:42;96809.59;;;3.37;100.00
9139;BME280;4604;48.616;9.548;2022-11-25T02:17:11;96808.75;;;3.37;100.00
9139;BME280;4604;48.616;9.548;2022-11-25T02:19:57;96812.16;;;3.52;100.00
9139;BME280;4604;48.616;9.548;2022-11-25T02:22:31;96806.34;;;3.61;100.00
9139;BME280;4604;48.616;9.548;2022-11-25T02:25:13;96795.34;;;3.56;100.00
9139;BME280;4604;48.616;9.548;2022-11-25T02:27:43;96796.53;;;3.64;100.00
9139;BME280;4604;48.616;9.548;2022-11-25T02:30:13;96796.34;;;3.68;100.00
9139;BME280;4604;48.616;9.548;2022-11-25T02:32:42;96804.91;;;3.70;100.00
9139;BME280;4604;48.616;9.548;2022-11-25T02:35:25;96802.09;;;3.73;100.00
9139;BME280;4604;48.616;9.548;2022-11-25T02:37:56;96796.16;;;3.71;100.00
9139;BME280;4604;48.616;9.548;2022-11-25T02:40:27;96792.50;;;3.73;100.00
9139;BME280;4604;48.616;9.548;2022-11-25T02:42:57;96793.44;;;3.72;100.00
9139;BME280;4604;48.616;9.548;2022-11-25T02:45:34;96786.25;;;3.76;100.00
9139;BME280;4604;48.616;9.548;2022-11-25T02:48:04;96783.19;;;3.69;100.00
9139;BME280;4604;48.616;9.548;2022-11-25T02:50:31;96788.75;;;3.77;100.00
9139;BME280;4604;48.616;9.548;2022-11-25T02:52:58;96775.38;;;3.69;100.00
9139;BME280;4604;48.616;9.548;2022-11-25T02:55:24;96789.03;;;3.73;100.00
9139;BME280;4604;48.616;9.548;2022-11-25T02:57:53;96780.50;;;3.71;100.00
9139;BME280;4604;48.616;9.548;2022-11-25T03:00:20;96783.72;;;3.74;100.00
9139;BME280;4604;48.616;9.548;2022-11-25T03:02:47;96774.25;;;3.73;100.00
9139;BME280;4604;48.616;9.548;2022-11-25T03:05:17;96769.63;;;3.77;100.00
9139;BME280;4604;48.616;9.548;2022-11-25T03:07:43;96780.16;;;3.75;100.00
9139;BME280;4604;48.616;9.548;2022-11-25T03:10:11;96781.13;;;3.74;100.00
9139;BME280;4604;48.616;9.548;2022-11-25T03:12:37;96763.13;;;3.57;100.00
9139;BME280;4604;48.616;9.548;2022-11-25T03:15:08;96785.50;;;3.74;100.00
9139;BME280;4604;48.616;9.548;2022-11-25T03:17:35;96715.25;;;3.31;100.00
9139;BME280;4604;48.616;9.548;2022-11-25T03:20:02;96785.50;;;3.74;100.00
9139;BME280;4604;48.616;9.548;2022-11-25T03:22:29;96790.72;;;3.74;100.00
9139;BME280;4604;48.616;9.548;2022-11-25T03:24:55;96801.50;;;3.55;100.00
9139;BME280;4604;48.616;9.548;2022-11-25T03:27:22;96798.66;;;3.45;100.00
9139;BME280;4604;48.616;9.548;2022-11-25T03:30:10;96801.97;;;3.34;100.00
9139;BME280;4604;48.616;9.548;2022-11-25T03:32:38;96808.50;;;3.27;100.00
9139;BME280;4604;48.616;9.548;2022-11-25T03:35:05;96795.38;;;3.14;100.00
9139;BME280;4604;48.616;9.548;2022-11-25T03:37:32;96806.56;;;3.16;100.00
9139;BME280;4604;48.616;9.548;2022-11-25T03:39:59;96806.84;;;3.12;100.00
9139;BME280;4604;48.616;9.548;2022-11-25T03:42:26;96803.41;;;3.11;100.00
9139;BME280;4604;48.616;9.548;2022-11-25T03:44:53;96799.44;;;3.06;100.00
9139;BME280;4604;48.616;9.548;2022-11-25T03:47:21;96780.81;;;2.97;100.00
9139;BME280;4604;48.616;9.548;2022-11-25T03:49:48;96786.28;;;3.07;100.00
9139;BME280;4604;48.616;9.548;2022-11-25T03:52:15;96789.75;;;3.08;100.00
9139;BME280;4604;48.616;9.548;2022-11-25T03:54:43;96744.09;;;2.73;100.00
9139;BME280;4604;48.616;9.548;2022-11-25T03:57:10;96783.25;;;3.00;100.00
9139;BME280;4604;48.616;9.548;2022-11-25T03:59:37;96752.19;;;2.83;100.00
9139;BME280;4604;48.616;9.548;2022-11-25T04:02:03;96697.13;;;2.46;100.00
9139;BME280;4604;48.616;9.548;2022-11-25T04:04:32;96790.22;;;3.00;100.00
9139;BME280;4604;48.616;9.548;2022-11-25T04:06:58;96776.72;;;2.93;100.00
9139;BME280;4604;48.616;9.548;2022-11-25T04:09:25;96743.25;;;2.73;100.00
9139;BME280;4604;48.616;9.548;2022-11-25T04:11:54;96777.19;;;3.00;100.00
9139;BME280;4604;48.616;9.548;2022-11-25T04:14:38;96774.00;;;2.95;100.00
9139;BME280;4604;48.616;9.548;2022-11-25T04:17:05;96776.72;;;2.93;100.00
9139;BME280;4604;48.616;9.548;2022-11-25T04:19:33;96787.31;;;3.05;100.00
9139;BME280;4604;48.616;9.548;2022-11-25T04:22:00;96798.47;;;3.07;100.00
9139;BME280;4604;48.616;9.548;2022-11-25T04:24:28;96786.66;;;3.01;100.00
9139;BME280;4604;48.616;9.548;2022-11-25T04:26:55;96797.72;;;3.05;100.00
9139;BME280;4604;48.616;9.548;2022-11-25T04:29:23;96790.41;;;2.97;100.00
9139;BME280;4604;48.616;9.548;2022-11-25T04:31:50;96802.94;;;3.05;100.00
9139;BME280;4604;48.616;9.548;2022-11-25T04:34:17;96807.81;;;2.96;100.00
9139;BME280;4604;48.616;9.548;2022-11-25T04:36:45;96814.59;;;2.99;100.00
9139;BME280;4604;48.616;9.548;2022-11-25T04:39:12;96815.53;;;2.98;100.00
9139;BME280;4604;48.616;9.548;2022-11-25T04:41:45;96801.47;;;3.00;100.00
9139;BME280;4604;48.616;9.548;2022-11-25T04:44:12;96799.78;;;2.99;100.00
9139;BME280;4604;48.616;9.548;2022-11-25T04:46:45;96799.63;;;3.03;100.00
9139;BME280;4604;48.616;9.548;2022-11-25T04:49:11;96780.16;;;2.94;100.00
9139;BME280;4604;48.616;9.548;2022-11-25T04:51:42;96789.75;;;2.93;100.00
9139;BME280;4604;48.616;9.548;2022-11-25T04:54:10;96790.69;;;2.92;100.00
9139;BME280;4604;48.616;9.548;2022-11-25T04:56:41;96789.66;;;2.95;100.00
9139;BME280;4604;48.616;9.548;2022-11-25T04:59:08;96739.94;;;2.56;100.00
9139;BME280;4604;48.616;9.548;2022-11-25T05:05:33;96788.53;;;2.99;100.00
9139;BME280;4604;48.616;9.548;2022-11-25T05:07:59;96781.00;;;2.94;100.00
9139;BME280;4604;48.616;9.548;2022-11-25T05:10:33;96786.00;;;2.97;100.00
9139;BME280;4604;48.616;9.548;2022-11-25T05:15:50;96698.63;;;2.50;100.00
9139;BME280;4604;48.616;9.548;2022-11-25T05:18:17;96783.31;;;2.99;100.00
9139;BME280;4604;48.616;9.548;2022-11-25T05:20:44;96772.34;;;2.94;100.00
9139;BME280;4604;48.616;9.548;2022-11-25T05:23:11;96788.25;;;3.04;100.00
9139;BME280;4604;48.616;9.548;2022-11-25T05:25:43;96787.75;;;3.11;100.00
9139;BME280;4604;48.616;9.548;2022-11-25T05:28:10;96791.94;;;3.14;100.00
9139;BME280;4604;48.616;9.548;2022-11-25T05:30:36;96795.63;;;3.24;100.00
9139;BME280;4604;48.616;9.548;2022-11-25T05:33:04;96802.34;;;3.28;100.00
9139;BME280;4604;48.616;9.548;2022-11-25T05:35:30;96799.78;;;3.41;100.00
9139;BME280;4604;48.616;9.548;2022-11-25T05:37:58;96774.84;;;3.37;100.00
9139;BME280;4604;48.616;9.548;2022-11-25T05:40:28;96809.63;;;3.77;100.00
9139;BME280;4604;48.616;9.548;2022-11-25T05:43:22;96810.59;;;3.89;100.00
9139;BME280;4604;48.616;9.548;2022-11-25T05:45:49;96817.22;;;3.68;100.00
9139;BME280;4604;48.616;9.548;2022-11-25T05:48:16;96802.78;;;3.62;100.00
9139;BME280;4604;48.616;9.548;2022-11-25T05:50:42;96772.03;;;3.40;100.00
9139;BME280;4604;48.616;9.548;2022-11-25T05:53:11;96743.63;;;3.35;100.00
9139;BME280;4604;48.616;9.548;2022-11-25T05:58:46;96800.22;;;4.15;100.00
9139;BME280;4604;48.616;9.548;2022-11-25T06:04:53;96789.97;;;4.50;100.00
9139;BME280;4604;48.616;9.548;2022-11-25T06:07:19;96787.16;;;4.66;100.00
9139;BME280;4604;48.616;9.548;2022-11-25T06:09:52;96788.19;;;4.76;100.00
9139;BME280;4604;48.616;9.548;2022-11-25T06:12:19;96796.09;;;4.87;100.00
9139;BME280;4604;48.616;9.548;2022-11-25T06:14:49;96771.31;;;4.80;100.00
9139;BME280;4604;48.616;9.548;2022-11-25T06:17:16;96796.19;;;4.99;100.00
9139;BME280;4604;48.616;9.548;2022-11-25T06:19:45;96803.75;;;4.90;100.00
9139;BME280;4604;48.616;9.548;2022-11-25T06:22:12;96807.22;;;4.78;100.00
9139;BME280;4604;48.616;9.548;2022-11-25T06:24:44;96806.78;;;4.71;100.00
9139;BME280;4604;48.616;9.548;2022-11-25T06:27:10;96814.13;;;4.66;100.00
9139;BME280;4604;48.616;9.548;2022-11-25T06:29:42;96807.22;;;4.53;100.00
9139;BME280;4604;48.616;9.548;2022-11-25T06:32:10;96822.47;;;4.33;100.00
9139;BME280;4604;48.616;9.548;2022-11-25T06:34:41;96834.38;;;4.24;100.00
9139;BME280;4604;48.616;9.548;2022-11-25T06:37:08;96829.47;;;4.20;100.00
9139;BME280;4604;48.616;9.548;2022-11-25T06:39:36;96838.31;;;3.77;100.00
9139;BME280;4604;48.616;9.548;2022-11-25T06:42:03;96845.00;;;3.69;100.00
9139;BME280;4604;48.616;9.548;2022-11-25T06:44:30;96855.72;;;3.64;100.00
9139;BME280;4604;48.616;9.548;2022-11-25T06:46:57;96862.34;;;3.55;100.00
9139;BME280;4604;48.616;9.548;2022-11-25T06:49:25;96859.16;;;3.37;100.00
9139;BME280;4604;48.616;9.548;2022-11-25T06:51:53;96871.59;;;3.19;100.00
9139;BME280;4604;48.616;9.548;2022-11-25T06:54:20;96876.13;;;3.02;100.00
9139;BME280;4604;48.616;9.548;2022-11-25T06:56:48;96875.50;;;2.84;100.00
9139;BME280;4604;48.616;9.548;2022-11-25T06:59:18;96884.41;;;2.79;100.00
9139;BME280;4604;48.616;9.548;2022-11-25T07:01:45;96883.94;;;2.73;100.00
9139;BME280;4604;48.616;9.548;2022-11-25T07:04:12;96878.47;;;2.77;100.00
9139;BME280;4604;48.616;9.548;2022-11-25T07:06:47;96893.00;;;2.82;100.00
9139;BME280;4604;48.616;9.548;2022-11-25T07:09:14;96881.81;;;2.79;100.00
9139;BME280;4604;48.616;9.548;2022-11-25T07:11:42;96887.22;;;2.91;100.00
9139;BME280;4604;48.616;9.548;2022-11-25T07:14:10;96883.03;;;3.03;100.00
9139;BME280;4604;48.616;9.548;2022-11-25T07:16:42;96881.34;;;3.16;100.00
9139;BME280;4604;48.616;9.548;2022-11-25T07:19:10;96881.00;;;3.08;100.00
9139;BME280;4604;48.616;9.548;2022-11-25T07:21:45;96879.41;;;3.19;100.00
9139;BME280;4604;48.616;9.548;2022-11-25T07:24:15;96864.19;;;3.26;100.00
9139;BME280;4604;48.616;9.548;2022-11-25T07:26:42;96884.41;;;3.37;100.00
9139;BME280;4604;48.616;9.548;2022-11-25T07:29:12;96866.16;;;3.37;100.00
9139;BME280;4604;48.616;9.548;2022-11-25T07:31:45;96880.06;;;3.50;100.00
9139;BME280;4604;48.616;9.548;2022-11-25T07:34:14;96875.13;;;3.60;100.00
9139;BME280;4604;48.616;9.548;2022-11-25T07:36:42;96896.53;;;3.65;100.00
9139;BME280;4604;48.616;9.548;2022-11-25T07:39:11;96894.66;;;3.67;100.00
9139;BME280;4604;48.616;9.548;2022-11-25T07:41:48;96894.50;;;3.56;100.00
9139;BME280;4604;48.616;9.548;2022-11-25T07:44:15;96911.91;;;3.70;100.00
9139;BME280;4604;48.616;9.548;2022-11-25T07:46:43;96909.78;;;3.62;100.00
9139;BME280;4604;48.616;9.548;2022-11-25T07:49:13;96913.84;;;3.80;100.00
9139;BME280;4604;48.616;9.548;2022-11-25T07:51:46;96925.47;;;3.89;100.00
9139;BME280;4604;48.616;9.548;2022-11-25T07:54:13;96918.13;;;3.81;100.00
9139;BME280;4604;48.616;9.548;2022-11-25T07:56:42;96919.16;;;3.79;100.00
9139;BME280;4604;48.616;9.548;2022-11-25T07:59:13;96928.06;;;3.89;100.00
9139;BME280;4604;48.616;9.548;2022-11-25T08:01:42;96924.09;;;3.83;100.00
9139;BME280;4604;48.616;9.548;2022-11-25T08:04:11;96931.50;;;3.90;100.00
9139;BME280;4604;48.616;9.548;2022-11-25T08:06:45;96928.66;;;3.80;100.00
9139;BME280;4604;48.616;9.548;2022-11-25T08:09:14;96929.31;;;3.83;100.00
9139;BME280;4604;48.616;9.548;2022-11-25T08:11:43;96937.03;;;3.85;100.00
9139;BME280;4604;48.616;9.548;2022-11-25T08:14:11;96945.09;;;3.95;100.00
9139;BME280;4604;48.616;9.548;2022-11-25T08:16:45;96933.63;;;3.97;100.00
9139;BME280;4604;48.616;9.548;2022-11-25T08:19:13;96933.88;;;4.07;100.00
9139;BME280;4604;48.616;9.548;2022-11-25T08:21:43;96935.41;;;4.24;100.00
9139;BME280;4604;48.616;9.548;2022-11-25T08:24:14;96928.22;;;4.27;100.00
9139;BME280;4604;48.616;9.548;2022-11-25T08:26:42;96911.56;;;4.16;100.00
9139;BME280;4604;48.616;9.548;2022-11-25T08:29:13;96928.44;;;4.37;100.00
9139;BME280;4604;48.616;9.548;2022-11-25T08:31:42;96944.00;;;4.39;100.00
9139;BME280;4604;48.616;9.548;2022-11-25T08:34:10;96940.91;;;4.46;100.00
9139;BME280;4604;48.616;9.548;2022-11-25T08:36:42;96951.16;;;4.49;100.00
9139;BME280;4604;48.616;9.548;2022-11-25T08:39:09;96927.00;;;4.46;100.00
9139;BME280;4604;48.616;9.548;2022-11-25T08:41:36;96957.53;;;4.58;100.00
9139;BME280;4604;48.616;9.548;2022-11-25T08:44:05;96947.28;;;4.55;100.00
9139;BME280;4604;48.616;9.548;2022-11-25T08:46:35;96951.28;;;4.61;100.00
9139;BME280;4604;48.616;9.548;2022-11-25T08:49:05;96961.34;;;4.67;100.00
9139;BME280;4604;48.616;9.548;2022-11-25T08:51:35;96958.63;;;4.68;100.00
9139;BME280;4604;48.616;9.548;2022-11-25T08:54:02;96962.91;;;4.69;100.00
9139;BME280;4604;48.616;9.548;2022-11-25T08:56:30;96960.72;;;4.63;100.00
9139;BME280;4604;48.616;9.548;2022-11-25T08:58:56;96950.88;;;4.80;100.00
9139;BME280;4604;48.616;9.548;2022-11-25T09:01:24;96954.66;;;4.76;100.00
9139;BME280;4604;48.616;9.548;2022-11-25T09:03:54;96954.97;;;4.84;100.00
9139;BME280;4604;48.616;9.548;2022-11-25T09:06:21;96957.16;;;4.90;100.00
9139;BME280;4604;48.616;9.548;2022-11-25T09:08:48;96948.09;;;4.96;100.00
9139;BME280;4604;48.616;9.548;2022-11-25T09:11:16;96947.34;;;5.06;100.00
9139;BME280;4604;48.616;9.548;2022-11-25T09:13:42;96956.75;;;5.22;100.00
9139;BME280;4604;48.616;9.548;2022-11-25T09:16:09;96961.28;;;5.32;100.00
9139;BME280;4604;48.616;9.548;2022-11-25T09:18:36;96950.81;;;5.32;100.00
9139;BME280;4604;48.616;9.548;2022-11-25T09:21:10;96955.59;;;5.39;100.00
9139;BME280;4604;48.616;9.548;2022-11-25T09:23:37;96944.81;;;5.43;100.00
9139;BME280;4604;48.616;9.548;2022-11-25T09:26:05;96954.13;;;5.47;100.00
9139;BME280;4604;48.616;9.548;2022-11-25T09:28:33;96957.16;;;5.54;100.00
9139;BME280;4604;48.616;9.548;2022-11-25T09:31:05;96954.31;;;5.57;100.00
9139;BME280;4604;48.616;9.548;2022-11-25T09:33:32;96965.72;;;5.69;100.00
9139;BME280;4604;48.616;9.548;2022-11-25T09:35:59;96977.00;;;5.82;100.00
9139;BME280;4604;48.616;9.548;2022-11-25T09:38:27;96975.00;;;5.98;100.00
9139;BME280;4604;48.616;9.548;2022-11-25T09:40:59;96968.66;;;6.14;100.00
9139;BME280;4604;48.616;9.548;2022-11-25T09:43:36;96977.41;;;6.26;100.00
9139;BME280;4604;48.616;9.548;2022-11-25T09:46:39;96986.09;;;6.50;100.00
9139;BME280;4604;48.616;9.548;2022-11-25T09:49:18;96978.56;;;6.70;100.00
9139;BME280;4604;48.616;9.548;2022-11-25T09:51:55;96983.22;;;6.77;100.00
9139;BME280;4604;48.616;9.548;2022-11-25T09:54:31;96973.03;;;6.85;100.00
9139;BME280;4604;48.616;9.548;2022-11-25T09:57:06;96981.38;;;6.91;100.00
9139;BME280;4604;48.616;9.548;2022-11-25T09:59:44;96953.94;;;6.83;100.00
9139;BME280;4604;48.616;9.548;2022-11-25T10:02:16;96978.69;;;7.15;100.00
9139;BME280;4604;48.616;9.548;2022-11-25T10:04:51;96979.19;;;7.31;100.00
9139;BME280;4604;48.616;9.548;2022-11-25T10:07:25;96982.91;;;7.51;100.00
9139;BME280;4604;48.616;9.548;2022-11-25T10:10:00;96975.50;;;7.67;96.12
9139;BME280;4604;48.616;9.548;2022-11-25T10:12:31;96963.47;;;7.54;96.95
9139;BME280;4604;48.616;9.548;2022-11-25T10:15:00;96990.91;;;7.72;96.22
9139;BME280;4604;48.616;9.548;2022-11-25T10:17:43;96968.69;;;7.42;97.59
9139;BME280;4604;48.616;9.548;2022-11-25T10:20:20;96982.78;;;7.53;100.00
9139;BME280;4604;48.616;9.548;2022-11-25T10:22:49;96976.09;;;7.48;100.00
9139;BME280;4604;48.616;9.548;2022-11-25T10:25:21;96980.16;;;7.53;100.00
9139;BME280;4604;48.616;9.548;2022-11-25T10:27:52;96981.00;;;7.76;100.00
9139;BME280;4604;48.616;9.548;2022-11-25T10:30:22;96984.94;;;7.92;100.00
9139;BME280;4604;48.616;9.548;2022-11-25T10:32:53;96977.63;;;8.07;100.00
9139;BME280;4604;48.616;9.548;2022-11-25T10:35:28;96974.94;;;8.19;100.00
9139;BME280;4604;48.616;9.548;2022-11-25T10:37:59;96980.91;;;8.32;98.19
9139;BME280;4604;48.616;9.548;2022-11-25T10:40:28;96961.66;;;8.43;95.00
9139;BME280;4604;48.616;9.548;2022-11-25T10:42:55;96978.22;;;8.54;94.44
9139;BME280;4604;48.616;9.548;2022-11-25T10:45:27;96978.69;;;8.60;94.51
9139;BME280;4604;48.616;9.548;2022-11-25T10:48:19;96979.09;;;8.76;92.96
9139;BME280;4604;48.616;9.548;2022-11-25T10:51:02;96965.63;;;8.69;95.02
9139;BME280;4604;48.616;9.548;2022-11-25T10:53:29;96978.09;;;8.88;95.30
9139;BME280;4604;48.616;9.548;2022-11-25T10:55:59;96971.09;;;8.98;94.26
9139;BME280;4604;48.616;9.548;2022-11-25T10:58:30;96977.63;;;9.04;90.24
9139;BME280;4604;48.616;9.548;2022-11-25T11:01:08;96983.16;;;9.22;90.31
9139;BME280;4604;48.616;9.548;2022-11-25T11:03:38;96977.75;;;9.45;87.86
9139;BME280;4604;48.616;9.548;2022-11-25T11:06:05;96981.88;;;9.37;85.09
9139;BME280;4604;48.616;9.548;2022-11-25T11:08:37;96985.06;;;9.41;86.54
9139;BME280;4604;48.616;9.548;2022-11-25T11:11:14;96994.16;;;9.58;87.24
9139;BME280;4604;48.616;9.548;2022-11-25T11:13:42;96996.22;;;9.54;84.59
9139;BME280;4604;48.616;9.548;2022-11-25T11:16:26;96999.00;;;9.53;85.22
9139;BME280;4604;48.616;9.548;2022-11-25T11:18:54;97005.19;;;9.42;85.77
9139;BME280;4604;48.616;9.548;2022-11-25T11:21:23;97012.50;;;9.38;85.29
9139;BME280;4604;48.616;9.548;2022-11-25T11:23:54;97007.69;;;9.23;87.50
9139;BME280;4604;48.616;9.548;2022-11-25T11:26:25;97012.81;;;9.03;87.51
9139;BME280;4604;48.616;9.548;2022-11-25T11:29:00;97011.13;;;9.02;87.63
9139;BME280;4604;48.616;9.548;2022-11-25T11:31:31;97012.81;;;9.03;87.79
9139;BME280;4604;48.616;9.548;2022-11-25T11:34:17;97022.28;;;9.06;89.67
9139;BME280;4604;48.616;9.548;2022-11-25T11:36:59;97010.84;;;8.95;90.76
9139;BME280;4604;48.616;9.548;2022-11-25T11:39:51;96974.50;;;8.57;88.27
9139;BME280;4604;48.616;9.548;2022-11-25T11:42:28;97013.31;;;8.76;89.68
9139;BME280;4604;48.616;9.548;2022-11-25T11:45:08;97020.97;;;8.68;90.48
9139;BME280;4604;48.616;9.548;2022-11-25T11:47:45;97010.59;;;8.66;90.04
9139;BME280;4604;48.616;9.548;2022-11-25T11:50:30;97007.69;;;8.81;88.60
9139;BME280;4604;48.616;9.548;2022-11-25T11:53:05;97008.69;;;8.68;89.65
9139;BME280;4604;48.616;9.548;2022-11-25T11:56:01;97019.06;;;8.70;89.77
9139;BME280;4604;48.616;9.548;2022-11-25T11:58:46;97019.56;;;8.64;89.87
9139;BME280;4604;48.616;9.548;2022-11-25T12:01:28;97016.59;;;8.57;91.12
9139;BME280;4604;48.616;9.548;2022-11-25T12:04:10;97022.22;;;8.52;92.00
9139;BME280;4604;48.616;9.548;2022-11-25T12:06:41;97034.75;;;8.60;92.03
9139;BME280;4604;48.616;9.548;2022-11-25T12:09:14;97015.06;;;8.54;92.76
9139;BME280;4604;48.616;9.548;2022-11-25T12:11:47;97017.09;;;8.51;93.35
9139;BME280;4604;48.616;9.548;2022-11-25T12:14:29;97025.56;;;8.66;95.27
9139;BME280;4604;48.616;9.548;2022-11-25T12:17:04;97032.13;;;8.60;96.43
9139;BME280;4604;48.616;9.548;2022-11-25T12:19:37;97032.75;;;8.52;97.78
9139;BME280;4604;48.616;9.548;2022-11-25T12:22:09;97037.19;;;8.52;98.87
9139;BME280;4604;48.616;9.548;2022-11-25T12:24:47;97036.84;;;8.45;98.76
9139;BME280;4604;48.616;9.548;2022-11-25T12:27:19;97039.22;;;8.48;99.04
9139;BME280;4604;48.616;9.548;2022-11-25T12:29:52;97046.41;;;8.46;100.00
9139;BME280;4604;48.616;9.548;2022-11-25T12:32:45;97044.88;;;8.44;100.00
9139;BME280;4604;48.616;9.548;2022-11-25T12:35:22;97044.47;;;8.37;100.00
9139;BME280;4604;48.616;9.548;2022-11-25T12:38:00;97042.56;;;8.39;100.00
9139;BME280;4604;48.616;9.548;2022-11-25T12:40:33;97017.25;;;8.27;100.00
9139;BME280;4604;48.616;9.548;2022-11-25T12:43:09;97045.47;;;8.25;100.00
9139;BME280;4604;48.616;9.548;2022-11-25T12:45:44;97052.97;;;8.18;100.00
9139;BME280;4604;48.616;9.548;2022-11-25T12:48:18;97054.75;;;8.29;100.00
9139;BME280;4604;48.616;9.548;2022-11-25T12:50:51;97048.31;;;8.22;100.00
9139;BME280;4604;48.616;9.548;2022-11-25T12:53:27;97062.53;;;8.19;100.00
9139;BME280;4604;48.616;9.548;2022-11-25T12:55:58;97067.44;;;8.24;100.00
9139;BME280;4604;48.616;9.548;2022-11-25T12:58:42;97067.47;;;8.12;100.00
9139;BME280;4604;48.616;9.548;2022-11-25T13:01:33;97071.75;;;8.13;100.00
9139;BME280;4604;48.616;9.548;2022-11-25T13:04:32;97070.78;;;8.26;100.00
9139;BME280;4604;48.616;9.548;2022-11-25T13:07:21;97074.38;;;8.25;100.00
9139;BME280;4604;48.616;9.548;2022-11-25T13:10:20;97074.25;;;8.26;100.00
9139;BME280;4604;48.616;9.548;2022-11-25T13:13:01;97073.56;;;8.24;100.00
9139;BME280;4604;48.616;9.548;2022-11-25T13:15:40;97077.38;;;8.20;100.00
9139;BME280;4604;48.616;9.548;2022-11-25T13:18:15;97077.47;;;8.19;100.00
9139;BME280;4604;48.616;9.548;2022-11-25T13:20:47;97091.69;;;8.16;100.00
9139;BME280;4604;48.616;9.548;2022-11-25T13:23:23;97092.91;;;8.23;100.00
9139;BME280;4604;48.616;9.548;2022-11-25T13:25:51;97095.88;;;8.19;100.00
9139;BME280;4604;48.616;9.548;2022-11-25T13:28:31;97103.19;;;8.15;100.00
9139;BME280;4604;48.616;9.548;2022-11-25T13:31:19;97107.72;;;8.13;100.00
9139;BME280;4604;48.616;9.548;2022-11-25T13:34:20;97090.88;;;8.27;100.00
9139;BME280;4604;48.616;9.548;2022-11-25T13:36:51;97074.41;;;8.02;100.00
9139;BME280;4604;48.616;9.548;2022-11-25T13:39:28;97091.81;;;8.03;100.00
9139;BME280;4604;48.616;9.548;2022-11-25T13:42:09;97118.47;;;8.10;100.00
9139;BME280;4604;48.616;9.548;2022-11-25T13:44:49;97117.88;;;8.18;100.00
9139;BME280;4604;48.616;9.548;2022-11-25T13:47:30;97120.88;;;8.13;100.00
9139;BME280;4604;48.616;9.548;2022-11-25T13:50:02;97134.13;;;8.11;100.00
9139;BME280;4604;48.616;9.548;2022-11-25T13:52:34;97139.75;;;8.18;100.00
9139;BME280;4604;48.616;9.548;2022-11-25T13:55:07;97145.13;;;8.28;100.00
9139;BME280;4604;48.616;9.548;2022-11-25T13:57:38;97143.44;;;8.15;100.00
9139;BME280;4604;48.616;9.548;2022-11-25T14:00:08;97144.97;;;8.07;100.00
9139;BME280;4604;48.616;9.548;2022-11-25T14:02:38;97147.38;;;7.99;100.00
9139;BME280;4604;48.616;9.548;2022-11-25T14:05:50;97154.06;;;8.03;100.00
9139;BME280;4604;48.616;9.548;2022-11-25T14:08:36;97161.94;;;7.91;100.00